San Isidro del General, Costa Rica
Current Conditions -  °F | °C
As of 8:00 AM on Tuesday 21 Oct 2014 (Local Time) from MRPV Reporting Station
Light Fog Light Fog  
Wind Chill: 72°   Ceiling: 10000
Heat Index: 72°   Visibility: 4mi
Dew Point: 66°   Wind: 2mph
Humidity: 83%   Direction: 100°E
Pressure: 30.03"   Gusts: NA
Location:  9.38°N, 83.7°W
Report Text: MRPV 211400Z 10002KT 7000 BCFG FEW010 BKN100 22/19 A3003 NOSIG
Loading
Personal Weather Stations






























Interactive Weather Map
Tropical Storm Tracking
New forecast layout! Learn more

10-Day Weather Forecast

Advertisements
Track Severe Weather on mobile